Time;durP1;ratioP1;P1;durP2;ratioP2;P2;SDS_P1;SDS_P2;PMS_P1;PMS_P2;Temp;Humidity;BMP_temperature;BMP_pressure;BME280_temperature;BME280_humidity;BME280_pressure;Samples;Min_cycle;Max_cycle;Signal;HPM_P1;HPM_P2
2022/02/14 00:00:24;;;;;;;33.72;21.90;;;4.10;99.90;;;;;;5012530;28;20033;-50
2022/02/14 00:02:50;;;;;;;34.08;24.35;;;3.80;99.90;;;;;;5029058;28;20081;-51
2022/02/14 00:05:16;;;;;;;32.72;22.73;;;3.30;99.90;;;;;;5009421;28;20037;-51
2022/02/14 00:07:42;;;;;;;39.17;25.42;;;3.20;99.90;;;;;;5015673;28;20237;-49
2022/02/14 00:10:08;;;;;;;41.58;25.95;;;3.20;99.90;;;;;;4978884;28;20088;-50
2022/02/14 00:12:39;;;;;;;44.92;26.77;;;3.10;99.90;;;;;;5011680;28;20038;-48
2022/02/14 00:15:05;;;;;;;42.42;25.52;;;3.30;99.90;;;;;;5008925;28;20048;-49
2022/02/14 00:17:31;;;;;;;36.53;22.48;;;3.50;99.90;;;;;;4990871;28;20124;-49
2022/02/14 00:19:57;;;;;;;41.95;27.05;;;3.30;99.90;;;;;;5008002;28;20498;-50
2022/02/14 00:22:23;;;;;;;42.20;26.52;;;3.30;99.90;;;;;;5009865;28;20490;-52
2022/02/14 00:24:52;;;;;;;33.70;24.17;;;3.70;99.90;;;;;;5011324;28;20069;-49
2022/02/14 00:27:20;;;;;;;36.60;24.05;;;3.70;99.90;;;;;;5013091;28;20057;-59
2022/02/14 00:29:46;;;;;;;37.63;24.88;;;3.50;99.90;;;;;;5014451;28;20041;-50
2022/02/14 00:32:12;;;;;;;32.50;22.20;;;3.30;99.90;;;;;;5014943;28;20038;-50
2022/02/14 00:34:38;;;;;;;42.53;26.33;;;3.40;99.90;;;;;;5013213;28;20096;-50
2022/02/14 00:37:05;;;;;;;37.05;26.25;;;3.30;99.90;;;;;;5011921;28;20034;-49
2022/02/14 00:39:31;;;;;;;38.13;24.40;;;3.40;99.90;;;;;;4966493;28;20121;-51
2022/02/14 00:41:57;;;;;;;38.05;24.45;;;3.50;99.90;;;;;;5012622;28;20168;-48
2022/02/14 00:44:22;;;;;;;38.58;25.15;;;3.20;99.90;;;;;;5011748;28;20048;-50
2022/02/14 00:46:50;;;;;;;40.88;24.45;;;3.40;99.90;;;;;;5011335;28;20056;-48
2022/02/14 00:49:16;;;;;;;34.70;24.60;;;3.20;99.90;;;;;;5012300;28;20030;-51
2022/02/14 00:51:41;;;;;;;35.47;26.30;;;3.10;99.90;;;;;;5011696;28;20045;-51
2022/02/14 00:54:08;;;;;;;33.85;23.15;;;3.20;99.90;;;;;;5012332;28;20113;-51
2022/02/14 00:56:33;;;;;;;36.85;24.92;;;3.20;99.90;;;;;;5010926;28;20034;-49
2022/02/14 00:58:59;;;;;;;35.17;26.02;;;3.20;99.90;;;;;;5011635;28;20462;-51
2022/02/14 01:01:28;;;;;;;35.92;23.77;;;2.90;99.90;;;;;;5009542;28;20474;-51
2022/02/14 01:03:54;;;;;;;44.55;27.55;;;3.00;99.90;;;;;;5014909;28;20424;-51
2022/02/14 01:06:20;;;;;;;39.42;24.75;;;2.90;99.90;;;;;;5009314;28;20037;-49
2022/02/14 01:08:46;;;;;;;41.78;27.80;;;3.00;99.90;;;;;;5012089;28;20026;-48
2022/02/14 01:11:13;;;;;;;37.60;27.35;;;3.10;99.90;;;;;;5013523;28;20168;-49
2022/02/14 01:13:39;;;;;;;41.78;28.70;;;3.20;99.90;;;;;;5008439;28;20045;-51
2022/02/14 01:16:05;;;;;;;46.40;30.73;;;3.10;99.90;;;;;;5010708;28;20038;-51
2022/02/14 01:18:31;;;;;;;52.78;36.72;;;3.00;99.90;;;;;;5008556;28;20406;-49
2022/02/14 01:20:56;;;;;;;55.53;35.83;;;3.00;99.90;;;;;;5010575;28;20194;-51
2022/02/14 01:23:22;;;;;;;65.97;41.78;;;3.20;99.90;;;;;;4960626;28;20046;-49
2022/02/14 01:25:48;;;;;;;40.47;26.20;;;3.20;99.90;;;;;;5013067;28;20084;-51
2022/02/14 01:28:14;;;;;;;43.33;28.90;;;2.90;99.90;;;;;;5013416;28;20132;-49
2022/02/14 01:30:39;;;;;;;39.25;26.58;;;2.80;99.90;;;;;;5009642;28;20083;-50
2022/02/14 01:33:05;;;;;;;36.40;26.35;;;2.70;99.90;;;;;;5007145;28;20046;-50
2022/02/14 01:35:31;;;;;;;36.13;26.27;;;2.80;99.90;;;;;;5014160;28;20048;-50
2022/02/14 01:37:57;;;;;;;48.65;32.50;;;2.80;99.90;;;;;;5013317;28;20041;-48
2022/02/14 01:40:23;;;;;;;36.08;24.75;;;2.90;99.90;;;;;;5009792;28;20053;-49
2022/02/14 01:42:49;;;;;;;36.00;24.75;;;2.90;99.90;;;;;;4978611;28;20038;-50
2022/02/14 01:45:15;;;;;;;33.05;23.88;;;3.10;99.90;;;;;;5009735;28;20046;-51
2022/02/14 01:47:41;;;;;;;34.58;24.27;;;3.00;99.90;;;;;;5008144;28;20041;-54
2022/02/14 01:50:09;;;;;;;35.25;25.10;;;2.90;99.90;;;;;;4993979;28;20496;-48
2022/02/14 01:52:35;;;;;;;38.08;27.10;;;3.00;99.90;;;;;;4942916;28;20056;-50
2022/02/14 01:55:03;;;;;;;40.88;27.80;;;2.90;99.90;;;;;;5009732;28;20130;-48
2022/02/14 01:57:29;;;;;;;40.10;26.67;;;2.80;99.90;;;;;;4974497;28;20347;-49
2022/02/14 01:59:57;;;;;;;39.08;25.75;;;2.70;99.90;;;;;;5011195;28;20041;-50
2022/02/14 02:02:23;;;;;;;39.28;25.88;;;2.70;99.90;;;;;;5006054;28;20100;-48
2022/02/14 02:04:49;;;;;;;41.90;29.70;;;2.70;99.90;;;;;;4975956;28;20449;-51
2022/02/14 02:07:15;;;;;;;38.92;28.20;;;2.90;99.90;;;;;;5009783;28;20034;-48
2022/02/14 02:09:45;;;;;;;40.72;26.63;;;2.70;99.90;;;;;;5011431;28;20119;-48
2022/02/14 02:12:22;;;;;;;40.38;28.38;;;2.50;99.90;;;;;;5009489;28;20042;-48
2022/02/14 02:15:02;;;;;;;44.78;26.65;;;2.50;99.90;;;;;;5008920;28;20139;-50
2022/02/14 02:17:38;;;;;;;36.85;25.55;;;2.50;99.90;;;;;;5005281;28;20026;-48
2022/02/14 02:20:07;;;;;;;36.13;25.55;;;2.60;99.90;;;;;;5012913;28;20030;-48
2022/02/14 02:22:33;;;;;;;39.05;25.98;;;2.60;99.90;;;;;;4988069;28;20039;-50
2022/02/14 02:24:59;;;;;;;37.97;26.00;;;2.80;99.90;;;;;;5009074;28;20108;-50
2022/02/14 02:27:26;;;;;;;42.00;26.70;;;2.80;99.90;;;;;;5013552;28;20339;-48
2022/02/14 02:29:58;;;;;;;34.28;24.98;;;2.80;99.90;;;;;;5008397;28;20030;-52
2022/02/14 02:32:26;;;;;;;38.20;25.52;;;2.70;99.90;;;;;;5007522;28;20470;-51
2022/02/14 02:34:52;;;;;;;37.30;23.65;;;2.60;99.90;;;;;;5006001;28;20130;-50
2022/02/14 02:37:18;;;;;;;34.00;23.05;;;2.70;99.90;;;;;;5009022;28;20034;-51
2022/02/14 02:39:45;;;;;;;35.60;24.23;;;2.70;99.90;;;;;;5011707;28;20440;-51
2022/02/14 02:42:13;;;;;;;36.38;24.98;;;2.60;99.90;;;;;;5016188;28;20574;-49
2022/02/14 02:44:40;;;;;;;37.90;25.45;;;2.80;99.90;;;;;;5015439;28;20497;-49
2022/02/14 02:47:08;;;;;;;45.35;29.40;;;2.70;99.90;;;;;;5014222;28;20504;-51
2022/02/14 02:49:35;;;;;;;37.85;26.73;;;;;;;;;;5016887;28;20376;-50
2022/02/14 02:52:02;;;;;;;36.75;26.42;;;2.70;99.90;;;;;;5019261;28;20052;-49
2022/02/14 02:54:28;;;;;;;32.42;22.35;;;2.80;99.90;;;;;;5013525;28;20176;-49
2022/02/14 02:56:55;;;;;;;33.75;23.15;;;2.50;99.90;;;;;;5012333;28;20452;-49
2022/02/14 02:59:23;;;;;;;33.92;24.02;;;2.30;99.90;;;;;;5011723;28;20034;-50
2022/02/14 03:01:48;;;;;;;35.65;24.35;;;2.00;99.90;;;;;;5013664;28;20046;-48
2022/02/14 03:04:15;;;;;;;32.63;23.10;;;2.00;99.90;;;;;;5012507;28;20103;-49
2022/02/14 03:06:42;;;;;;;38.40;25.48;;;1.90;99.90;;;;;;4980800;28;20031;-49
2022/02/14 03:09:10;;;;;;;36.90;23.90;;;2.00;99.90;;;;;;4984809;28;20556;-49
2022/02/14 03:11:37;;;;;;;38.83;24.92;;;2.50;99.90;;;;;;4988019;28;20101;-51
2022/02/14 03:14:03;;;;;;;37.95;25.92;;;2.20;99.90;;;;;;4988064;28;20118;-51
2022/02/14 03:16:29;;;;;;;37.08;25.50;;;2.00;99.90;;;;;;4990070;28;20089;-49
2022/02/14 03:18:55;;;;;;;45.38;26.38;;;2.00;99.90;;;;;;4986628;28;20498;-51
2022/02/14 03:21:22;;;;;;;43.00;27.35;;;2.40;99.90;;;;;;4992896;28;20042;-48
2022/02/14 03:23:49;;;;;;;34.28;20.73;;;2.30;99.90;;;;;;4985006;28;20133;-48
2022/02/14 03:26:17;;;;;;;38.33;22.45;;;;;;;;;;4981804;28;20093;-48
2022/02/14 03:28:44;;;;;;;38.08;24.52;;;1.60;99.90;;;;;;4993416;28;20034;-51
2022/02/14 03:31:11;;;;;;;36.10;24.27;;;1.50;99.90;;;;;;4980957;28;20034;-50
2022/02/14 03:33:37;;;;;;;37.30;24.25;;;1.40;99.90;;;;;;4979565;28;20043;-51
2022/02/14 03:36:03;;;;;;;38.03;24.55;;;1.30;99.90;;;;;;4986566;28;20034;-50
2022/02/14 03:38:29;;;;;;;42.35;26.80;;;1.40;99.90;;;;;;5009424;28;20049;-51
2022/02/14 03:40:55;;;;;;;35.38;22.77;;;1.80;99.90;;;;;;5008612;28;20398;-51
2022/02/14 03:43:20;;;;;;;34.17;23.02;;;1.90;99.90;;;;;;5012893;28;20049;-49
2022/02/14 03:45:46;;;;;;;34.72;23.10;;;2.10;99.90;;;;;;5011703;28;20030;-49
2022/02/14 03:48:12;;;;;;;33.15;23.00;;;2.40;99.90;;;;;;5012749;28;20050;-49
2022/02/14 03:50:38;;;;;;;31.45;22.10;;;2.40;99.90;;;;;;5009485;28;20030;-48
2022/02/14 03:53:05;;;;;;;30.95;22.27;;;2.40;99.90;;;;;;5015099;28;20477;-51
2022/02/14 03:55:31;;;;;;;31.60;22.08;;;2.40;99.90;;;;;;5012862;28;20517;-50
2022/02/14 03:57:57;;;;;;;35.05;23.83;;;2.10;99.90;;;;;;5011806;28;20037;-51
2022/02/14 04:00:24;;;;;;;37.20;23.45;;;2.00;99.90;;;;;;5013902;28;20378;-52
2022/02/14 04:02:51;;;;;;;36.45;24.92;;;2.20;99.90;;;;;;5010472;28;20065;-50
2022/02/14 04:05:18;;;;;;;41.50;26.38;;;2.30;99.90;;;;;;5025154;28;20042;-50
2022/02/14 04:07:45;;;;;;;36.88;24.45;;;2.10;99.90;;;;;;5010233;28;20038;-51
2022/02/14 04:10:13;;;;;;;34.88;23.20;;;2.00;99.90;;;;;;5015333;28;20030;-49
2022/02/14 04:12:39;;;;;;;31.85;22.35;;;1.90;99.90;;;;;;5009697;28;20084;-49
2022/02/14 04:15:06;;;;;;;34.15;23.98;;;2.00;99.90;;;;;;5009821;28;20034;-49
2022/02/14 04:17:31;;;;;;;34.13;22.88;;;2.30;99.90;;;;;;4970088;28;20049;-49
2022/02/14 04:19:58;;;;;;;31.65;22.65;;;2.50;99.90;;;;;;5013454;28;20029;-49
2022/02/14 04:22:23;;;;;;;31.95;23.23;;;2.20;99.90;;;;;;5025414;28;20390;-48
2022/02/14 04:24:49;;;;;;;34.95;23.10;;;2.40;99.90;;;;;;5013422;28;20030;-50
2022/02/14 04:27:15;;;;;;;37.15;25.17;;;2.70;99.90;;;;;;5011443;28;20030;-49
2022/02/14 04:29:41;;;;;;;37.25;23.70;;;2.50;99.90;;;;;;5012388;28;20033;-50
2022/02/14 04:32:07;;;;;;;35.15;23.85;;;2.20;99.90;;;;;;5012257;28;20107;-51
2022/02/14 04:34:34;;;;;;;33.35;23.48;;;2.50;99.90;;;;;;5013626;28;20038;-51
2022/02/14 04:37:00;;;;;;;37.17;24.85;;;2.70;99.90;;;;;;5009608;28;20037;-50
2022/02/14 04:39:26;;;;;;;39.58;25.27;;;2.70;99.90;;;;;;5009034;28;20037;-50
2022/02/14 04:41:52;;;;;;;33.70;24.17;;;2.70;99.90;;;;;;4962767;28;20374;-49
2022/02/14 04:44:18;;;;;;;34.10;23.83;;;2.60;99.90;;;;;;4995165;28;20046;-49
2022/02/14 04:46:44;;;;;;;36.75;26.40;;;2.30;99.90;;;;;;5011187;28;20097;-51
2022/02/14 04:49:11;;;;;;;33.85;23.38;;;2.20;99.90;;;;;;5010907;28;20065;-49
2022/02/14 04:51:37;;;;;;;34.75;23.23;;;2.20;99.90;;;;;;5012173;28;20037;-50
2022/02/14 04:54:03;;;;;;;35.33;23.05;;;2.00;99.90;;;;;;5011992;28;20049;-49
2022/02/14 04:56:30;;;;;;;36.38;24.55;;;1.70;99.90;;;;;;5015024;28;20503;-48
2022/02/14 04:58:56;;;;;;;35.63;24.10;;;1.50;99.90;;;;;;5015453;28;20040;-48
2022/02/14 05:01:23;;;;;;;44.67;26.05;;;1.30;99.90;;;;;;5033871;28;20042;-49
2022/02/14 05:03:49;;;;;;;40.25;27.50;;;1.50;99.90;;;;;;5011974;28;20029;-50
2022/02/14 05:06:15;;;;;;;41.95;28.80;;;1.60;99.90;;;;;;5019378;28;20442;-51
2022/02/14 05:08:41;;;;;;;31.90;23.05;;;2.10;99.90;;;;;;5019293;28;20061;-51
2022/02/14 05:11:07;;;;;;;37.45;25.10;;;2.20;99.90;;;;;;5019249;28;20112;-50
2022/02/14 05:13:33;;;;;;;35.67;25.05;;;2.50;99.90;;;;;;5019530;28;20359;-51
2022/02/14 05:15:58;;;;;;;43.00;26.42;;;2.70;99.90;;;;;;5014903;28;20087;-52
2022/02/14 05:18:24;;;;;;;71.25;38.47;;;2.60;99.90;;;;;;5031840;28;20038;-51
2022/02/14 05:20:50;;;;;;;42.97;28.33;;;2.40;99.90;;;;;;5039405;28;20034;-49
2022/02/14 05:23:16;;;;;;;43.92;28.75;;;2.10;99.90;;;;;;5026922;28;20103;-50
2022/02/14 05:25:42;;;;;;;40.15;27.70;;;2.00;99.90;;;;;;4976620;28;20520;-49
2022/02/14 05:28:11;;;;;;;41.95;28.63;;;2.20;99.90;;;;;;5021127;28;20034;-51
2022/02/14 05:30:37;;;;;;;38.60;26.30;;;2.50;99.90;;;;;;5011072;28;20410;-51
2022/02/14 05:33:04;;;;;;;36.25;24.52;;;2.70;99.90;;;;;;5016813;28;21233;-51
2022/02/14 05:35:31;;;;;;;32.33;22.58;;;2.90;99.90;;;;;;5023630;28;20875;-49
2022/02/14 05:37:57;;;;;;;38.85;25.17;;;2.60;99.90;;;;;;5037967;28;20104;-51
2022/02/14 05:40:23;;;;;;;38.42;25.38;;;2.70;99.90;;;;;;5021790;28;20466;-50
2022/02/14 05:42:48;;;;;;;44.47;29.05;;;2.90;99.90;;;;;;5028517;28;20017;-49
2022/02/14 05:45:14;;;;;;;46.20;30.20;;;3.10;99.90;;;;;;5017554;28;20025;-49
2022/02/14 05:47:40;;;;;;;35.42;24.42;;;3.20;99.90;;;;;;5023604;28;20061;-48
2022/02/14 05:50:07;;;;;;;40.60;24.23;;;3.30;99.90;;;;;;5016927;28;20389;-51
2022/02/14 05:52:34;;;;;;;38.42;25.75;;;3.40;99.90;;;;;;5022037;28;20041;-52
2022/02/14 05:55:00;;;;;;;35.70;25.48;;;3.50;99.90;;;;;;5022676;28;20049;-48
2022/02/14 05:57:26;;;;;;;32.25;23.02;;;3.30;99.90;;;;;;5022697;28;20509;-50
2022/02/14 05:59:52;;;;;;;35.35;23.73;;;3.30;99.90;;;;;;5020263;28;20032;-50
2022/02/14 06:02:18;;;;;;;36.42;25.10;;;3.00;99.90;;;;;;5025685;28;20041;-48
2022/02/14 06:04:44;;;;;;;33.25;23.70;;;3.10;99.90;;;;;;5017213;28;20488;-51
2022/02/14 06:07:10;;;;;;;33.47;23.25;;;3.10;99.90;;;;;;5018608;28;20044;-52
2022/02/14 06:09:36;;;;;;;28.85;22.45;;;2.70;99.90;;;;;;5017974;28;20045;-51
2022/02/14 06:12:02;;;;;;;38.85;23.58;;;2.50;99.90;;;;;;4981853;28;20038;-51
2022/02/14 06:14:30;;;;;;;36.60;24.63;;;2.60;99.90;;;;;;4971395;28;20490;-50
2022/02/14 06:16:56;;;;;;;35.28;24.15;;;2.90;99.90;;;;;;5019974;28;20029;-49
2022/02/14 06:19:21;;;;;;;46.08;29.33;;;3.80;99.90;;;;;;5027127;28;20048;-48
2022/02/14 06:21:47;;;;;;;41.35;29.42;;;5.20;99.90;;;;;;5022229;28;20030;-49
2022/02/14 06:24:14;;;;;;;49.88;32.78;;;6.50;99.90;;;;;;5021755;28;20127;-51
2022/02/14 06:26:40;;;;;;;44.00;29.98;;;6.20;99.90;;;;;;5019305;28;20101;-50
2022/02/14 06:29:06;;;;;;;37.38;24.55;;;6.40;99.90;;;;;;5022408;28;20545;-52
2022/02/14 06:31:33;;;;;;;37.35;25.70;;;5.30;99.90;;;;;;4970794;28;20053;-49
2022/02/14 06:33:58;;;;;;;35.90;23.73;;;4.50;99.90;;;;;;5032331;28;20121;-48
2022/02/14 06:36:27;;;;;;;41.03;29.08;;;4.30;99.90;;;;;;5016139;28;20542;-50
2022/02/14 06:38:57;;;;;;;39.72;28.60;;;4.10;99.90;;;;;;5015459;28;20032;-50
2022/02/14 06:41:24;;;;;;;41.72;29.08;;;4.50;99.90;;;;;;5011102;28;20537;-49
2022/02/14 06:43:54;;;;;;;43.17;30.75;;;4.60;99.90;;;;;;5009970;28;20120;-49
2022/02/14 06:46:20;;;;;;;42.53;31.60;;;5.00;99.90;;;;;;5004459;28;20065;-48
2022/02/14 06:48:46;;;;;;;46.85;31.15;;;5.20;99.90;;;;;;5007141;28;20030;-49
2022/02/14 06:51:13;;;;;;;43.40;31.92;;;4.80;99.90;;;;;;5027372;28;20582;-48
2022/02/14 06:53:38;;;;;;;43.17;31.15;;;5.10;99.90;;;;;;5007396;28;20030;-49
2022/02/14 06:56:05;;;;;;;43.42;29.92;;;5.40;99.90;;;;;;5016413;28;20536;-50
2022/02/14 06:58:39;;;;;;;46.45;29.77;;;5.40;99.90;;;;;;5007402;28;20043;-58
2022/02/14 07:01:05;;;;;;;44.65;28.75;;;5.00;99.90;;;;;;4980909;28;20042;-52
2022/02/14 07:03:31;;;;;;;39.88;28.70;;;5.10;99.90;;;;;;5024069;28;20038;-51
2022/02/14 07:05:57;;;;;;;39.42;28.70;;;4.20;99.90;;;;;;5018337;28;20509;-49
2022/02/14 07:08:23;;;;;;;41.65;30.00;;;6.20;99.90;;;;;;5014095;28;20114;-51
2022/02/14 07:10:49;;;;;;;46.00;30.48;;;5.80;99.90;;;;;;5011164;28;20040;-50
2022/02/14 07:13:15;;;;;;;44.78;31.65;;;5.90;99.90;;;;;;5001527;28;20478;-53
2022/02/14 07:15:41;;;;;;;43.25;31.58;;;5.60;99.90;;;;;;5016537;28;20034;-49
2022/02/14 07:18:13;;;;;;;49.67;35.42;;;5.50;99.90;;;;;;5012273;28;20018;-53
2022/02/14 07:20:40;;;;;;;52.72;34.78;;;5.10;99.90;;;;;;5015732;28;20037;-51
2022/02/14 07:23:06;;;;;;;51.80;34.05;;;5.20;99.90;;;;;;5018621;28;20565;-53
2022/02/14 07:25:32;;;;;;;36.40;24.83;;;6.90;99.90;;;;;;5020996;28;20112;-53
2022/02/14 07:27:58;;;;;;;41.45;27.08;;;6.80;99.90;;;;;;5015827;28;20400;-51
2022/02/14 07:30:27;;;;;;;41.65;28.15;;;6.00;99.90;;;;;;4966623;28;20077;-50
2022/02/14 07:32:53;;;;;;;39.85;28.13;;;5.60;99.90;;;;;;4977792;28;20427;-54
2022/02/14 07:35:19;;;;;;;47.00;31.30;;;5.60;99.90;;;;;;4962910;28;20043;-47
2022/02/14 07:37:45;;;;;;;45.55;31.10;;;5.50;99.90;;;;;;4971067;28;20707;-46
2022/02/14 07:40:15;;;;;;;41.03;29.88;;;5.40;99.90;;;;;;4967065;28;20078;-51
2022/02/14 07:42:42;;;;;;;45.22;31.55;;;5.60;99.90;;;;;;4969193;28;20058;-53
2022/02/14 07:45:08;;;;;;;52.22;36.40;;;5.90;99.90;;;;;;4967342;28;20051;-50
2022/02/14 07:47:34;;;;;;;51.72;35.58;;;6.00;99.90;;;;;;4967274;28;20038;-54
2022/02/14 07:50:00;;;;;;;45.20;33.80;;;6.20;99.90;;;;;;4974768;28;20447;-51
2022/02/14 07:52:26;;;;;;;42.55;29.73;;;6.30;99.90;;;;;;4963356;28;20105;-50
2022/02/14 07:54:53;;;;;;;39.38;30.33;;;7.00;99.90;;;;;;4963183;28;20767;-46
2022/02/14 07:57:19;;;;;;;46.40;30.52;;;7.20;99.90;;;;;;4966053;28;20411;-48
2022/02/14 07:59:45;;;;;;;48.90;36.78;;;7.30;99.90;;;;;;4960458;28;20078;-49
2022/02/14 08:02:11;;;;;;;44.80;31.77;;;7.30;99.90;;;;;;4962831;28;20046;-50
2022/02/14 08:04:37;;;;;;;41.55;31.13;;;7.30;99.90;;;;;;5014891;28;20039;-53
2022/02/14 08:07:06;;;;;;;52.97;37.95;;;6.80;99.90;;;;;;5023381;28;20112;-52
2022/02/14 08:09:32;;;;;;;63.35;39.17;;;6.60;99.90;;;;;;5021073;28;20091;-53
2022/02/14 08:12:04;;;;;;;52.85;36.45;;;6.50;99.90;;;;;;5021358;28;20029;-59
2022/02/14 08:14:30;;;;;;;49.40;34.22;;;6.00;99.90;;;;;;5021978;28;20056;-52
2022/02/14 08:16:55;;;;;;;46.03;32.90;;;6.20;99.90;;;;;;5012700;28;20026;-52
2022/02/14 08:19:21;;;;;;;40.72;31.13;;;7.50;99.90;;;;;;5031821;28;20040;-52
2022/02/14 08:21:47;;;;;;;44.55;31.17;;;7.90;99.90;;;;;;5018900;28;20030;-60
2022/02/14 08:24:13;;;;;;;42.55;30.80;;;7.80;99.90;;;;;;4985600;28;20069;-55
2022/02/14 08:26:39;;;;;;;44.90;31.75;;;7.90;99.90;;;;;;5014330;28;20072;-56
2022/02/14 08:29:05;;;;;;;45.63;32.65;;;7.80;99.90;;;;;;5013783;28;20084;-57
2022/02/14 08:31:31;;;;;;;45.15;32.28;;;7.90;99.90;;;;;;5022659;28;20037;-57
2022/02/14 08:34:00;;;;;;;44.83;34.75;;;7.70;99.90;;;;;;5027170;28;20030;-57
2022/02/14 08:36:27;;;;;;;46.90;35.28;;;7.60;99.90;;;;;;5010824;28;20038;-58
2022/02/14 08:38:53;;;;;;;43.25;32.17;;;7.30;99.90;;;;;;5012655;28;20613;-51
2022/02/14 08:41:19;;;;;;;47.28;32.83;;;7.20;99.90;;;;;;5001170;28;20025;-54
2022/02/14 08:43:49;;;;;;;46.58;34.42;;;7.30;99.90;;;;;;4999608;28;20030;-51
2022/02/14 08:46:20;;;;;;;49.70;31.77;;;7.60;99.90;;;;;;5001598;28;20037;-49
2022/02/14 08:48:49;;;;;;;44.78;33.92;;;7.80;99.90;;;;;;5012460;28;20039;-53
2022/02/14 08:51:17;;;;;;;41.72;33.35;;;7.40;99.90;;;;;;5018279;28;20046;-50
2022/02/14 08:53:43;;;;;;;47.95;36.05;;;7.60;99.90;;;;;;5008724;28;20061;-55
2022/02/14 08:56:09;;;;;;;43.33;28.33;;;8.00;99.90;;;;;;4969704;28;20073;-59
2022/02/14 08:58:36;;;;;;;42.13;31.17;;;7.70;99.90;;;;;;5013116;28;20033;-58
2022/02/14 09:01:04;;;;;;;46.80;33.22;;;8.00;99.90;;;;;;5011594;28;20408;-55
2022/02/14 09:03:30;;;;;;;42.17;31.60;;;8.30;99.90;;;;;;5008133;28;20046;-57
2022/02/14 09:05:57;;;;;;;42.30;31.55;;;8.40;99.90;;;;;;5007483;28;20080;-59
2022/02/14 09:08:25;;;;;;;39.78;31.05;;;8.50;99.90;;;;;;5013162;28;20109;-54
2022/02/14 09:10:51;;;;;;;39.95;30.27;;;9.20;99.90;;;;;;5009736;28;20034;-52
2022/02/14 09:13:17;;;;;;;37.33;29.15;;;9.10;99.90;;;;;;5007721;28;20037;-58
2022/02/14 09:15:43;;;;;;;210.35;189.75;;;9.10;99.90;;;;;;5023181;28;20108;-54
2022/02/14 09:18:09;;;;;;;83.93;74.35;;;10.40;99.90;;;;;;5005903;28;20037;-62
2022/02/14 09:20:37;;;;;;;72.13;60.63;;;11.50;99.90;;;;;;5015973;28;20382;-50
2022/02/14 09:23:03;;;;;;;47.55;35.33;;;10.70;99.90;;;;;;4992712;28;20038;-50
2022/02/14 09:25:29;;;;;;;51.05;41.28;;;11.20;99.90;;;;;;5015553;28;20043;-51
2022/02/14 09:27:55;;;;;;;48.97;34.63;;;11.30;99.90;;;;;;4964067;28;20041;-52
2022/02/14 09:30:21;;;;;;;46.80;33.22;;;10.90;99.90;;;;;;5025002;28;20042;-52
2022/02/14 09:32:48;;;;;;;37.95;29.73;;;11.10;99.90;;;;;;5009002;28;20042;-50
2022/02/14 09:35:26;;;;;;;45.45;32.47;;;10.60;99.90;;;;;;5011742;28;20036;-48
2022/02/14 09:37:56;;;;;;;40.67;29.60;;;10.70;99.90;;;;;;5010021;28;20087;-50
2022/02/14 09:40:23;;;;;;;61.78;47.45;;;11.30;99.90;;;;;;5003498;28;20030;-50
2022/02/14 09:42:55;;;;;;;38.15;31.48;;;12.10;99.90;;;;;;5010972;28;20034;-51
2022/02/14 09:45:22;;;;;;;38.30;30.63;;;12.50;99.90;;;;;;5008173;28;20033;-50
2022/02/14 09:48:00;;;;;;;38.95;27.83;;;12.80;99.90;;;;;;5005841;28;20127;-51
2022/02/14 09:50:28;;;;;;;37.53;30.02;;;13.50;99.90;;;;;;5008878;28;20099;-51
2022/02/14 09:52:54;;;;;;;33.97;27.10;;;14.10;99.90;;;;;;5008700;28;20044;-50
2022/02/14 09:55:21;;;;;;;37.90;31.90;;;14.20;99.90;;;;;;5019415;28;20049;-51
2022/02/14 09:57:47;;;;;;;32.85;29.27;;;;;;;;;;5028375;28;20092;-51
2022/02/14 10:00:13;;;;;;;42.50;30.10;;;15.50;99.90;;;;;;5014579;28;20030;-51
2022/02/14 10:02:39;;;;;;;33.35;27.52;;;14.60;99.90;;;;;;5018409;28;20474;-51
2022/02/14 10:05:12;;;;;;;33.70;28.80;;;14.80;99.90;;;;;;5004946;28;20049;-52
2022/02/14 10:07:49;;;;;;;36.65;28.15;;;14.80;99.90;;;;;;4951071;28;20053;-50
2022/02/14 10:10:25;;;;;;;32.22;25.65;;;14.40;99.90;;;;;;5007785;28;20038;-50
2022/02/14 10:12:55;;;;;;;31.70;24.75;;;14.30;99.90;;;;;;5003224;28;20081;-49
2022/02/14 10:15:22;;;;;;;36.20;25.42;;;14.00;99.90;;;;;;5001282;28;20147;-49
2022/02/14 10:17:53;;;;;;;35.05;25.75;;;13.80;99.90;;;;;;5002353;28;20124;-50
2022/02/14 10:20:21;;;;;;;34.63;28.90;;;13.10;99.90;;;;;;5007708;28;20034;-49
2022/02/14 10:23:03;;;;;;;34.25;26.50;;;13.20;99.90;;;;;;5010839;28;20514;-49
2022/02/14 10:25:36;;;;;;;33.72;26.27;;;13.30;99.90;;;;;;5012618;28;20053;-49
2022/02/14 10:28:17;;;;;;;39.20;29.92;;;13.20;99.90;;;;;;5009017;28;20038;-50
2022/02/14 10:31:08;;;;;;;38.60;29.25;;;13.30;99.90;;;;;;5009987;28;20038;-48
2022/02/14 10:33:54;;;;;;;31.63;25.02;;;13.50;99.90;;;;;;4997517;28;20041;-48
2022/02/14 10:36:30;;;;;;;40.33;29.67;;;13.20;99.90;;;;;;4989838;28;20039;-49
2022/02/14 10:39:05;;;;;;;36.50;25.30;;;13.30;99.90;;;;;;5008315;28;20042;-48
2022/02/14 10:41:31;;;;;;;30.00;24.52;;;13.10;99.90;;;;;;5001114;28;20034;-48
2022/02/14 10:47:22;;;;;;;31.02;23.50;;;13.60;99.90;;;;;;4961525;28;20133;-49
2022/02/14 10:50:00;;;;;;;29.10;22.95;;;14.40;99.90;;;;;;4960289;28;20039;-47
2022/02/14 10:52:53;;;;;;;30.80;24.23;;;14.50;99.90;;;;;;4967167;28;20382;-50
2022/02/14 10:55:24;;;;;;;35.60;25.65;;;14.90;99.90;;;;;;4908593;28;20054;-47
2022/02/14 10:57:50;;;;;;;58.47;38.55;;;14.90;99.90;;;;;;4926841;28;20054;-49
2022/02/14 11:00:19;;;;;;;52.50;34.70;;;14.90;99.90;;;;;;4974402;28;20104;-51
2022/02/14 11:02:50;;;;;;;38.70;26.27;;;14.70;99.90;;;;;;4972696;28;20063;-45
2022/02/14 11:05:17;;;;;;;44.67;27.47;;;14.60;99.90;;;;;;4970991;28;20144;-51
2022/02/14 11:07:44;;;;;;;29.48;22.17;;;14.50;99.90;;;;;;4973033;28;20252;-50
2022/02/14 11:10:14;;;;;;;32.17;21.63;;;14.30;99.90;;;;;;4881472;28;20093;-51
2022/02/14 11:12:51;;;;;;;29.88;21.60;;;14.30;99.90;;;;;;4973968;28;20038;-53
2022/02/14 11:15:17;;;;;;;29.40;20.58;;;14.30;99.90;;;;;;4972394;28;20046;-51
2022/02/14 11:17:48;;;;;;;27.67;19.48;;;14.30;99.90;;;;;;4972665;28;20554;-48
2022/02/14 11:20:16;;;;;;;42.25;21.88;;;14.30;99.90;;;;;;4975650;28;20106;-53
2022/02/14 11:22:49;;;;;;;49.65;31.48;;;;;;;;;;4996703;28;20121;-48
2022/02/14 11:25:30;;;;;;;39.92;29.23;;;13.80;99.90;;;;;;5006369;28;20034;-51
2022/02/14 11:28:30;;;;;;;48.67;34.95;;;13.70;99.90;;;;;;5010317;28;20161;-50
2022/02/14 11:31:17;;;;;;;50.88;35.17;;;13.50;99.90;;;;;;5009498;28;20105;-51
2022/02/14 11:33:55;;;;;;;43.85;31.50;;;13.10;99.90;;;;;;5002095;28;20042;-52
2022/02/14 11:36:23;;;;;;;38.20;30.83;;;13.10;99.90;;;;;;5008466;28;20384;-52
2022/02/14 11:38:53;;;;;;;69.90;36.03;;;13.00;99.90;;;;;;5010200;28;20026;-51
2022/02/14 11:41:41;;;;;;;38.72;30.13;;;12.90;99.90;;;;;;5013165;28;20112;-51
2022/02/14 11:44:16;;;;;;;48.75;35.58;;;12.60;99.90;;;;;;5004516;28;20113;-51
2022/02/14 11:46:54;;;;;;;42.55;30.63;;;12.40;99.90;;;;;;5008764;28;20084;-51
2022/02/14 11:49:21;;;;;;;35.40;27.50;;;12.00;99.90;;;;;;5008730;28;20080;-51
2022/02/14 11:51:58;;;;;;;83.53;48.35;;;11.70;99.90;;;;;;5007187;28;20062;-52
2022/02/14 11:54:40;;;;;;;37.08;29.60;;;11.60;99.90;;;;;;5005765;28;20505;-52
2022/02/14 11:57:33;;;;;;;56.30;36.35;;;11.70;99.90;;;;;;5009215;28;20034;-53
2022/02/14 12:00:23;;;;;;;44.83;30.90;;;11.50;99.90;;;;;;5010018;28;20034;-52
2022/02/14 12:03:11;;;;;;;37.63;28.92;;;11.60;99.90;;;;;;5005662;28;20060;-52
2022/02/14 12:06:00;;;;;;;36.58;29.38;;;11.60;99.90;;;;;;5021809;28;20052;-52
2022/02/14 12:08:46;;;;;;;47.83;32.78;;;11.60;99.90;;;;;;5009185;28;20820;-52
2022/02/14 12:11:12;;;;;;;71.85;47.00;;;11.60;99.90;;;;;;5006080;28;20044;-51
2022/02/14 12:13:54;;;;;;;67.20;49.08;;;11.50;99.90;;;;;;5003303;28;20053;-52
2022/02/14 12:22:03;;;;;;;62.95;45.10;;;11.70;99.90;;;;;;4999552;28;20487;-52
2022/02/14 12:24:30;;;;;;;52.35;37.42;;;11.70;99.90;;;;;;5005369;28;20038;-53
2022/02/14 12:26:59;;;;;;;38.63;29.65;;;11.90;99.90;;;;;;5009576;28;20253;-52
2022/02/14 12:29:33;;;;;;;45.38;33.70;;;12.00;99.90;;;;;;5009111;28;20026;-52
2022/02/14 12:31:59;;;;;;;41.40;32.58;;;11.70;99.90;;;;;;5007536;28;20068;-51
2022/02/14 12:34:30;;;;;;;43.92;35.25;;;11.20;99.90;;;;;;5008027;28;20061;-51
2022/02/14 12:36:59;;;;;;;48.20;35.58;;;11.60;99.90;;;;;;5001968;28;20038;-52
2022/02/14 12:39:53;;;;;;;48.42;36.35;;;11.70;99.90;;;;;;5002879;28;20462;-51
2022/02/14 12:42:23;;;;;;;48.15;36.58;;;11.60;99.90;;;;;;4975298;28;20050;-52
2022/02/14 12:44:49;;;;;;;47.33;35.60;;;11.60;99.90;;;;;;4971197;28;20045;-52
2022/02/14 12:47:16;;;;;;;49.47;37.08;;;11.70;99.90;;;;;;4955317;28;20482;-50
2022/02/14 12:50:02;;;;;;;57.10;42.70;;;11.60;99.90;;;;;;4968814;28;20537;-56